Point, TX (75472)

10:39 AM CST on December 19, 2014 (GMT -0600)
Perkins Paradise | Change Station
CLOSE
Current Station
Personal Weather Station
Location: East Tawakoni, TX
Elevation: 463 ft
Nearby Weather Stations

Elev 463 ft 32.89 °N, 95.93 °W | Updated 8 seconds ago

Overcast
Overcast
46.1 °F
Feels Like 44 °F
N
5.0
Wind Variable Wind from ESE
Gusts 6.0 mph

Today
High -- | Low -- °F
--% Chance of Precip.
Yesterday
High -- | Low -- °F
Precip. -- in
7:21 AM 5:20 PM
Waning Crescent, 7% visible
Pressure 30.20 in
Visibility 2.0 miles
Clouds Overcast 300 ft
Windchill 44 °F
Dew Point 46 °F
Humidity 100%
Rainfall 0.02 in
Snow Depth Not available.
UV 0.0 out of 12
Pollen 8.00 out of 12
Air Quality Not available.
Flu Activity Not available.
METAR KGVT 191615Z AUTO 36008KT 2SM BR OVC003 07/06 A3020 RMK AO2

More Conditions Fewer Conditions

Pressure 30.20 in
Visibility 2.0 miles
Clouds Overcast 300 ft
Windchill 44 °F
Dew Point 46 °F
Humidity 100%
Rainfall 0.02 in
Snow Depth Not available.
UV 0.0 out of 12
Pollen 8.00 out of 12
Air Quality Not available.
Flu Activity Not available.
METAR KGVT 191615Z AUTO 36008KT 2SM BR OVC003 07/06 A3020 RMK AO2

More Conditions Fewer Conditions

Nowcast | as of 10:21 am CST on December 19, 2014

Areas of light rain will continue to exit portions of east central Texas by noon. Otherwise...areas of drizzle and patchy fog along with mostly cloudy skies will continue through the mid afternoon hours. Slight reductions in visibility may occur in areas of relatively heavier drizzle or slightly denser fog...but visibilities are expected to remain at or above 2 miles across most places. Temperatures through the late morning and afternoon hours will slowly climb into the mid 40s with a few low 50s possible across central Texas.

×

10-Day Weather Forecast

Almanac

Astronomy

Dec. 19, 2014 Rise Set
Actual Time
Civil Twilight
Nautical Twilight
Astronomical Twilight
Moon
Length of Visible Light
Length of Day
Tomorrow will be .
, % of the Moon is Illuminated

Today's Extremes

State Highs State Lows

Community

WunderPhotos

Upload Photos

1,779,005 photos uploaded!

WunderBlogs® & News

Nearby

Air Quality

  Air Quality AQ Index Pollutant
Not available.

Snow Depth

Station Depth Elevation

Earthquake Activity

City Distance Mag. Time & Date
Minimum magnitude displayed is 2.5.

Coastal Water Temperatures

Place Temperature

Nearby Weather Stations